createdAt,value
2023-02-05T00:00:50.277Z,3.25
2023-02-05T00:03:16.893Z,2.90
2023-02-05T00:05:43.616Z,3.13
2023-02-05T00:08:10.175Z,2.45
2023-02-05T00:10:36.729Z,2.53
2023-02-05T00:13:03.345Z,3.20
2023-02-05T00:15:30.104Z,2.70
2023-02-05T00:17:56.624Z,2.30
2023-02-05T00:20:23.242Z,2.13
2023-02-05T00:22:49.745Z,2.08
2023-02-05T00:25:16.537Z,3.17
2023-02-05T00:27:43.180Z,1.90
2023-02-05T00:30:10.184Z,2.10
2023-02-05T00:32:36.813Z,2.03
2023-02-05T00:35:03.433Z,2.25
2023-02-05T00:37:29.963Z,1.95
2023-02-05T00:39:56.514Z,1.90
2023-02-05T00:42:23.010Z,2.25
2023-02-05T00:44:49.545Z,2.10
2023-02-05T00:47:16.078Z,2.60
2023-02-05T00:49:42.712Z,3.10
2023-02-05T00:52:09.344Z,2.40
2023-02-05T00:54:35.885Z,2.33
2023-02-05T00:57:02.514Z,2.28
2023-02-05T00:59:28.987Z,2.80
2023-02-05T01:01:55.571Z,2.42
2023-02-05T01:04:22.077Z,2.65
2023-02-05T01:06:48.713Z,2.00
2023-02-05T01:09:15.229Z,2.42
2023-02-05T01:11:41.735Z,2.10
2023-02-05T01:14:08.293Z,2.97
2023-02-05T01:16:34.957Z,3.30
2023-02-05T01:19:01.431Z,2.38
2023-02-05T01:21:28.012Z,2.28
2023-02-05T01:23:54.797Z,2.85
2023-02-05T01:26:21.658Z,2.58
2023-02-05T01:28:48.279Z,2.80
2023-02-05T01:31:15.032Z,2.38
2023-02-05T01:33:41.667Z,1.98
2023-02-05T01:36:08.716Z,1.80
2023-02-05T01:38:35.370Z,2.40
2023-02-05T01:41:01.977Z,2.70
2023-02-05T01:43:28.671Z,2.10
2023-02-05T01:46:06.864Z,2.47
2023-02-05T01:48:42.264Z,2.17
2023-02-05T01:51:12.832Z,2.42
2023-02-05T01:53:40.408Z,2.10
2023-02-05T01:56:20.394Z,2.28
2023-02-05T01:59:10.295Z,2.33
2023-02-05T02:01:38.709Z,1.98
2023-02-05T02:04:05.878Z,2.53
2023-02-05T02:06:34.441Z,1.93
2023-02-05T02:09:02.170Z,3.33
2023-02-05T02:11:33.096Z,6.20
2023-02-05T02:14:03.446Z,4.22
2023-02-05T02:16:30.470Z,4.03
2023-02-05T02:18:57.400Z,2.97
2023-02-05T02:21:45.620Z,2.30
2023-02-05T02:24:42.632Z,2.58
2023-02-05T02:27:21.177Z,2.17
2023-02-05T02:29:55.383Z,2.50
2023-02-05T02:32:43.463Z,2.33
2023-02-05T02:35:20.989Z,2.40
2023-02-05T02:38:17.817Z,2.47
2023-02-05T02:41:04.886Z,2.38
2023-02-05T02:43:41.176Z,2.03
2023-02-05T02:46:17.863Z,1.88
2023-02-05T02:48:48.221Z,2.05
2023-02-05T02:51:17.547Z,2.72
2023-02-05T02:53:47.193Z,2.28
2023-02-05T02:56:16.327Z,2.13
2023-02-05T02:58:48.548Z,2.10
2023-02-05T03:01:23.593Z,2.38
2023-02-05T03:03:58.717Z,2.08
2023-02-05T03:06:27.075Z,2.35
2023-02-05T03:09:01.689Z,2.85
2023-02-05T03:11:28.356Z,2.03
2023-02-05T03:13:56.579Z,3.00
2023-02-05T03:16:27.266Z,2.50
2023-02-05T03:18:56.188Z,2.25
2023-02-05T03:21:34.133Z,2.25
2023-02-05T03:26:35.244Z,1.90
2023-02-05T03:29:14.766Z,2.13
2023-02-05T03:32:01.392Z,2.40
2023-02-05T03:34:57.584Z,2.47
2023-02-05T03:37:54.233Z,2.58
2023-02-05T03:43:30.915Z,2.03
2023-02-05T03:46:15.080Z,2.53
2023-02-05T03:49:00.499Z,3.17
2023-02-05T03:52:07.836Z,2.38
2023-02-05T03:54:57.541Z,2.42
2023-02-05T03:57:35.334Z,3.00
2023-02-05T04:00:02.911Z,2.35
2023-02-05T04:02:40.923Z,2.88
2023-02-05T04:05:09.204Z,2.50
2023-02-05T04:07:36.055Z,3.13
2023-02-05T04:12:31.156Z,3.30
2023-02-05T04:14:58.004Z,2.40
2023-02-05T04:17:24.625Z,3.22
2023-02-05T04:19:51.558Z,3.55
2023-02-05T04:22:20.020Z,2.53
2023-02-05T04:24:47.336Z,2.90
2023-02-05T04:27:15.051Z,2.83
2023-02-05T04:29:41.524Z,2.58
2023-02-05T04:32:08.066Z,3.15
2023-02-05T04:34:34.870Z,2.90
2023-02-05T04:37:02.113Z,3.55
2023-02-05T04:39:29.983Z,3.17
2023-02-05T04:41:56.482Z,2.88
2023-02-05T04:44:23.435Z,3.10
2023-02-05T04:46:50.039Z,3.55
2023-02-05T04:49:16.632Z,3.22
2023-02-05T04:51:43.130Z,3.58
2023-02-05T04:54:09.700Z,3.15
2023-02-05T04:56:36.192Z,3.05
2023-02-05T04:59:02.739Z,3.40
2023-02-05T05:01:29.420Z,3.05
2023-02-05T05:03:55.940Z,2.70
2023-02-05T05:06:22.539Z,3.00
2023-02-05T05:08:49.009Z,2.55
2023-02-05T05:11:18.203Z,2.92
2023-02-05T05:13:45.913Z,3.58
2023-02-05T05:16:12.997Z,2.42
2023-02-05T05:18:40.706Z,2.38
2023-02-05T05:21:07.936Z,3.70
2023-02-05T05:23:35.320Z,2.45
2023-02-05T05:26:04.833Z,3.13
2023-02-05T05:28:31.550Z,3.00
2023-02-05T05:30:58.145Z,2.22
2023-02-05T05:33:24.608Z,2.20
2023-02-05T05:35:51.083Z,2.42
2023-02-05T05:38:17.627Z,2.40
2023-02-05T05:40:44.102Z,2.42
2023-02-05T05:43:13.004Z,2.55
2023-02-05T05:45:39.638Z,2.40
2023-02-05T05:48:06.204Z,2.83
2023-02-05T05:50:32.668Z,2.85
2023-02-05T05:53:01.563Z,2.67
2023-02-05T05:55:28.020Z,2.13
2023-02-05T05:57:54.626Z,2.13
2023-02-05T06:00:21.228Z,2.55
2023-02-05T06:02:47.830Z,2.05
2023-02-05T06:05:14.537Z,2.03
2023-02-05T06:07:41.120Z,2.60
2023-02-05T06:10:08.379Z,2.13
2023-02-05T06:12:34.910Z,4.13
2023-02-05T06:15:01.412Z,2.88
2023-02-05T06:17:28.260Z,3.00
2023-02-05T06:19:55.263Z,2.53
2023-02-05T06:22:22.025Z,2.05
2023-02-05T06:24:48.589Z,2.08
2023-02-05T06:27:15.120Z,2.42
2023-02-05T06:29:41.662Z,2.47
2023-02-05T06:32:08.297Z,2.85
2023-02-05T06:34:34.792Z,2.45
2023-02-05T06:37:01.375Z,2.53
2023-02-05T06:39:27.979Z,2.05
2023-02-05T06:41:54.430Z,3.13
2023-02-05T06:44:21.010Z,2.03
2023-02-05T06:46:47.749Z,2.88
2023-02-05T06:49:14.200Z,2.55
2023-02-05T06:51:40.893Z,2.28
2023-02-05T06:54:07.495Z,3.03
2023-02-05T06:56:33.937Z,2.72
2023-02-05T06:59:00.373Z,2.38
2023-02-05T07:01:27.189Z,2.13
2023-02-05T07:03:56.098Z,2.53
2023-02-05T07:06:23.362Z,2.20
2023-02-05T07:08:50.813Z,2.15
2023-02-05T07:11:17.576Z,1.67
2023-02-05T07:13:44.162Z,2.13
2023-02-05T07:16:10.809Z,2.38
2023-02-05T07:18:37.631Z,1.85
2023-02-05T07:21:06.981Z,1.83
2023-02-05T07:23:34.144Z,2.08
2023-02-05T07:26:26.990Z,2.10
2023-02-05T07:28:53.591Z,2.58
2023-02-05T07:31:20.162Z,1.98
2023-02-05T07:33:47.642Z,2.50
2023-02-05T07:36:16.409Z,2.05
2023-02-05T07:38:44.922Z,1.85
2023-02-05T07:41:14.560Z,2.17
2023-02-05T07:43:41.529Z,1.83
2023-02-05T07:46:11.817Z,2.55
2023-02-05T07:48:38.793Z,2.47
2023-02-05T07:51:06.399Z,2.10
2023-02-05T07:53:33.158Z,2.72
2023-02-05T07:56:06.300Z,2.55
2023-02-05T07:58:32.810Z,2.40
2023-02-05T08:01:03.996Z,2.35
2023-02-05T08:03:30.955Z,2.45
2023-02-05T08:05:58.105Z,2.58
2023-02-05T08:08:25.420Z,2.37
2023-02-05T08:11:06.367Z,2.22
2023-02-05T08:13:33.568Z,3.05
2023-02-05T08:16:00.073Z,2.40
2023-02-05T08:18:26.580Z,2.65
2023-02-05T08:20:54.618Z,3.30
2023-02-05T08:25:48.264Z,2.92
2023-02-05T08:28:14.995Z,3.35
2023-02-05T08:30:41.544Z,4.72
2023-02-05T08:33:08.104Z,3.97
2023-02-05T08:35:34.933Z,3.45
2023-02-05T08:38:01.652Z,3.60
2023-02-05T08:40:28.289Z,3.97
2023-02-05T08:42:55.017Z,4.53
2023-02-05T08:45:21.565Z,4.05
2023-02-05T08:47:48.114Z,3.78
2023-02-05T08:50:14.628Z,3.72
2023-02-05T08:52:41.680Z,4.30
2023-02-05T08:55:09.021Z,4.30
2023-02-05T08:57:35.623Z,4.80
2023-02-05T09:00:02.410Z,5.13
2023-02-05T09:02:31.161Z,4.53
2023-02-05T09:05:07.968Z,2.50
2023-02-05T09:07:36.861Z,2.55
2023-02-05T09:10:03.786Z,3.03
2023-02-05T09:12:30.312Z,2.95
2023-02-05T09:14:56.808Z,2.35
2023-02-05T09:17:23.315Z,2.70
2023-02-05T09:19:49.797Z,2.38
2023-02-05T09:22:16.269Z,2.65
2023-02-05T09:24:42.764Z,2.35
2023-02-05T09:27:09.244Z,3.08
2023-02-05T09:29:35.751Z,2.95
2023-02-05T09:32:02.377Z,2.42
2023-02-05T09:34:28.921Z,2.58
2023-02-05T09:36:55.408Z,2.33
2023-02-05T09:39:52.633Z,2.47
2023-02-05T09:42:18.444Z,2.35
2023-02-05T09:45:09.536Z,2.00
2023-02-05T09:47:43.256Z,1.95
2023-02-05T09:50:21.328Z,2.60
2023-02-05T09:52:50.413Z,2.20
2023-02-05T09:55:20.063Z,2.10
2023-02-05T09:57:46.770Z,1.77
2023-02-05T10:00:45.689Z,1.70
2023-02-05T10:03:40.372Z,1.85
2023-02-05T10:06:33.776Z,1.63
2023-02-05T10:09:09.528Z,0.80
2023-02-05T10:11:51.107Z,2.20
2023-02-05T10:14:35.307Z,1.80
2023-02-05T10:17:12.065Z,1.48
2023-02-05T10:20:03.321Z,1.05
2023-02-05T10:22:47.512Z,1.73
2023-02-05T10:25:34.045Z,1.02
2023-02-05T10:28:19.238Z,1.27
2023-02-05T10:30:55.557Z,1.10
2023-02-05T10:33:44.865Z,1.30
2023-02-05T10:36:12.625Z,1.27
2023-02-05T10:38:44.748Z,1.23
2023-02-05T10:41:42.836Z,1.63
2023-02-05T10:44:24.268Z,1.60
2023-02-05T10:46:56.472Z,2.00
2023-02-05T10:49:42.609Z,1.77
2023-02-05T10:52:13.944Z,1.63
2023-02-05T10:54:40.712Z,2.17
2023-02-05T10:57:16.749Z,2.30
2023-02-05T11:00:12.788Z,3.08
2023-02-05T11:02:41.516Z,2.70
2023-02-05T11:05:20.202Z,2.42
2023-02-05T11:07:49.404Z,1.90
2023-02-05T11:10:21.572Z,2.03
2023-02-05T11:13:02.131Z,2.40
2023-02-05T11:15:31.780Z,1.88
2023-02-05T11:18:01.679Z,2.47
2023-02-05T11:20:37.763Z,2.10
2023-02-05T11:23:23.104Z,2.10
2023-02-05T11:25:50.821Z,1.77
2023-02-05T11:28:22.794Z,1.60
2023-02-05T11:30:51.540Z,2.00
2023-02-05T11:33:21.796Z,2.22
2023-02-05T11:36:05.335Z,1.40
2023-02-05T11:38:54.087Z,2.47
2023-02-05T11:41:38.773Z,3.53
2023-02-05T11:44:05.526Z,3.65
2023-02-05T11:46:42.532Z,4.07
2023-02-05T11:49:21.310Z,2.67
2023-02-05T11:51:53.241Z,2.40
2023-02-05T11:54:25.426Z,2.50
2023-02-05T11:57:04.361Z,2.72
2023-02-05T11:59:31.849Z,2.65
2023-02-05T12:02:26.308Z,2.67
2023-02-05T12:05:03.590Z,2.63
2023-02-05T12:07:37.808Z,2.92
2023-02-05T12:10:12.410Z,3.25
2023-02-05T12:12:50.973Z,3.17
2023-02-05T12:15:29.424Z,3.83
2023-02-05T12:18:20.889Z,3.83
2023-02-05T12:21:08.691Z,2.80
2023-02-05T12:23:59.345Z,6.43
2023-02-05T12:26:37.085Z,4.22
2023-02-05T12:29:17.018Z,5.35
2023-02-05T12:31:59.057Z,3.88
2023-02-05T12:34:45.650Z,3.92
2023-02-05T12:37:43.401Z,4.05
2023-02-05T12:40:37.799Z,2.90
2023-02-05T12:43:09.876Z,2.50
2023-02-05T12:45:55.521Z,3.58
2023-02-05T12:49:12.677Z,3.75
2023-02-05T12:52:10.279Z,6.22
2023-02-05T12:54:54.270Z,3.65
2023-02-05T12:57:29.389Z,2.50
2023-02-05T13:00:02.503Z,2.53
2023-02-05T13:03:07.348Z,3.50
2023-02-05T13:05:50.987Z,2.30
2023-02-05T13:08:36.123Z,2.95
2023-02-05T13:11:17.249Z,3.22
2023-02-05T13:13:56.427Z,2.72
2023-02-05T13:16:30.882Z,4.47
2023-02-05T13:19:05.370Z,4.13
2023-02-05T13:21:33.196Z,4.00
2023-02-05T13:24:21.437Z,4.07
2023-02-05T13:26:48.260Z,3.85
2023-02-05T13:29:17.774Z,7.25
2023-02-05T13:31:49.813Z,4.60
2023-02-05T13:34:18.106Z,3.35
2023-02-05T13:37:25.390Z,10.30
2023-02-05T13:40:10.200Z,4.70
2023-02-05T13:43:10.424Z,4.03
2023-02-05T13:46:21.416Z,3.50
2023-02-05T13:49:06.562Z,3.25
2023-02-05T13:51:47.885Z,3.55
2023-02-05T13:54:45.623Z,4.05
2023-02-05T13:57:38.492Z,4.32
2023-02-05T14:00:10.089Z,6.50
2023-02-05T14:02:47.164Z,3.22
2023-02-05T14:05:14.233Z,6.15
2023-02-05T14:07:48.675Z,3.65
2023-02-05T14:10:26.848Z,4.80
2023-02-05T14:12:54.334Z,6.60
2023-02-05T14:15:20.759Z,4.13
2023-02-05T14:17:47.247Z,4.57
2023-02-05T14:20:25.808Z,4.43
2023-02-05T14:22:54.327Z,6.65
2023-02-05T14:25:36.423Z,6.85
2023-02-05T14:28:03.831Z,5.75
2023-02-05T14:30:30.410Z,10.00
2023-02-05T14:32:59.938Z,7.88
2023-02-05T14:35:33.315Z,7.72
2023-02-05T14:38:02.205Z,11.52
2023-02-05T14:40:33.681Z,9.73
2023-02-05T14:43:12.875Z,9.48
2023-02-05T14:45:45.110Z,8.85
2023-02-05T14:48:30.654Z,7.82
2023-02-05T14:51:01.530Z,7.65
2023-02-05T14:53:29.290Z,6.55
2023-02-05T14:55:55.931Z,5.22
2023-02-05T14:58:30.577Z,4.93
2023-02-05T15:01:34.247Z,5.68
2023-02-05T15:04:05.468Z,4.05
2023-02-05T15:06:40.270Z,3.63
2023-02-05T15:09:17.701Z,3.10
2023-02-05T15:11:56.393Z,3.05
2023-02-05T15:14:22.920Z,4.50
2023-02-05T15:17:04.890Z,3.78
2023-02-05T15:19:49.558Z,3.10
2023-02-05T15:22:36.376Z,2.60
2023-02-05T15:25:31.186Z,2.78
2023-02-05T15:28:02.258Z,3.10
2023-02-05T15:30:39.005Z,3.10
2023-02-05T15:33:13.154Z,3.15
2023-02-05T15:35:44.379Z,3.25
2023-02-05T15:38:41.341Z,3.30
2023-02-05T15:41:10.617Z,2.85
2023-02-05T15:43:37.224Z,3.30
2023-02-05T15:46:07.591Z,4.78
2023-02-05T15:48:36.608Z,4.50
2023-02-05T15:51:17.676Z,5.20
2023-02-05T15:53:49.510Z,3.63
2023-02-05T15:56:34.573Z,4.13
2023-02-05T15:59:10.140Z,3.17
2023-02-05T16:01:44.344Z,3.30
2023-02-05T16:04:22.634Z,3.67
2023-02-05T16:06:49.277Z,3.58
2023-02-05T16:09:20.513Z,3.13
2023-02-05T16:11:47.981Z,3.35
2023-02-05T16:14:17.197Z,3.28
2023-02-05T16:17:14.491Z,2.70
2023-02-05T16:19:49.238Z,2.30
2023-02-05T16:22:34.259Z,3.25
2023-02-05T16:25:07.097Z,3.05
2023-02-05T16:27:43.738Z,3.15
2023-02-05T16:30:36.843Z,4.75
2023-02-05T16:33:04.821Z,4.22
2023-02-05T16:35:42.174Z,3.42
2023-02-05T16:38:16.910Z,3.40
2023-02-05T16:40:46.422Z,2.83
2023-02-05T16:43:36.113Z,3.42
2023-02-05T16:46:08.535Z,2.63
2023-02-05T16:48:47.008Z,3.30
2023-02-05T16:51:51.496Z,3.20
2023-02-05T16:54:17.941Z,3.58
2023-02-05T16:56:50.633Z,3.63
2023-02-05T16:59:24.340Z,2.97
2023-02-05T17:01:52.653Z,3.83
2023-02-05T17:04:22.734Z,3.30
2023-02-05T17:06:49.252Z,3.50
2023-02-05T17:09:32.541Z,3.47
2023-02-05T17:12:36.363Z,2.38
2023-02-05T17:15:15.185Z,2.70
2023-02-05T17:17:57.010Z,2.63
2023-02-05T17:20:25.393Z,2.60
2023-02-05T17:23:00.933Z,3.13
2023-02-05T17:25:29.085Z,3.60
2023-02-05T17:30:22.505Z,3.85
2023-02-05T17:32:49.295Z,3.15
2023-02-05T17:35:20.483Z,3.80
2023-02-05T17:37:46.968Z,5.10
2023-02-05T17:40:13.775Z,3.33
2023-02-05T17:42:40.763Z,3.90
2023-02-05T17:45:22.645Z,5.25
2023-02-05T17:47:49.181Z,4.60
2023-02-05T17:50:18.998Z,4.03
2023-02-05T17:52:46.142Z,4.97
2023-02-05T17:55:18.207Z,7.28
2023-02-05T17:57:45.355Z,9.07
2023-02-05T18:00:24.217Z,10.80
2023-02-05T18:02:51.013Z,10.45
2023-02-05T18:05:17.622Z,12.00
2023-02-05T18:07:50.698Z,8.77
2023-02-05T18:10:23.240Z,6.50
2023-02-05T18:12:50.180Z,6.03
2023-02-05T18:15:16.863Z,5.65
2023-02-05T18:17:43.469Z,6.38
2023-02-05T18:20:12.158Z,8.23
2023-02-05T18:22:39.025Z,8.00
2023-02-05T18:25:06.355Z,4.90
2023-02-05T18:27:33.223Z,5.43
2023-02-05T18:29:59.752Z,5.18
2023-02-05T18:32:26.360Z,4.85
2023-02-05T18:34:52.812Z,3.40
2023-02-05T18:37:19.568Z,3.72
2023-02-05T18:39:46.355Z,3.53
2023-02-05T18:42:12.900Z,3.97
2023-02-05T18:44:39.946Z,5.07
2023-02-05T18:47:09.646Z,5.78
2023-02-05T18:49:36.224Z,5.18
2023-02-05T18:52:02.822Z,4.18
2023-02-05T18:54:29.369Z,4.13
2023-02-05T18:56:55.868Z,4.70
2023-02-05T18:59:22.820Z,6.95
2023-02-05T19:01:50.138Z,6.78
2023-02-05T19:04:16.970Z,5.55
2023-02-05T19:06:45.909Z,5.45
2023-02-05T19:09:12.497Z,5.20
2023-02-05T19:11:39.069Z,4.15
2023-02-05T19:14:05.563Z,4.25
2023-02-05T19:16:35.262Z,4.63
2023-02-05T19:19:02.667Z,4.38
2023-02-05T19:21:29.931Z,5.25
2023-02-05T19:23:58.464Z,4.63
2023-02-05T19:26:29.418Z,4.72
2023-02-05T19:28:58.294Z,6.05
2023-02-05T19:31:28.248Z,6.03
2023-02-05T19:33:55.723Z,7.53
2023-02-05T19:36:22.861Z,6.43
2023-02-05T19:38:49.591Z,5.97
2023-02-05T19:41:19.038Z,5.65
2023-02-05T19:43:50.834Z,5.05
2023-02-05T19:46:19.566Z,5.38
2023-02-05T19:48:46.279Z,4.25
2023-02-05T19:51:13.939Z,4.47
2023-02-05T19:53:42.263Z,4.93
2023-02-05T19:56:12.417Z,4.85
2023-02-05T19:58:41.271Z,3.95
2023-02-05T20:01:14.516Z,4.15
2023-02-05T20:03:41.885Z,4.00
2023-02-05T20:06:09.587Z,4.28
2023-02-05T20:08:36.459Z,4.32
2023-02-05T20:11:04.065Z,4.03
2023-02-05T20:13:33.208Z,4.32
2023-02-05T20:16:14.102Z,3.45
2023-02-05T20:18:41.698Z,3.75
2023-02-05T20:21:10.691Z,3.30
2023-02-05T20:23:39.309Z,3.90
2023-02-05T20:26:07.242Z,4.38
2023-02-05T20:28:36.281Z,3.47
2023-02-05T20:31:06.336Z,3.60
2023-02-05T20:33:32.893Z,4.25
2023-02-05T20:36:07.725Z,4.85
2023-02-05T20:38:34.961Z,4.20
2023-02-05T20:41:10.970Z,4.60
2023-02-05T20:43:37.695Z,4.28
2023-02-05T20:46:05.054Z,3.95
2023-02-05T20:48:31.834Z,4.00
2023-02-05T20:51:11.053Z,3.70
2023-02-05T20:53:38.415Z,3.58
2023-02-05T20:56:11.000Z,3.83
2023-02-05T20:58:37.999Z,4.22
2023-02-05T21:01:10.063Z,3.53
2023-02-05T21:03:37.636Z,4.13
2023-02-05T21:06:04.386Z,3.92
2023-02-05T21:08:31.350Z,3.30
2023-02-05T21:10:57.964Z,5.32
2023-02-05T21:13:24.480Z,4.00
2023-02-05T21:15:53.336Z,4.00
2023-02-05T21:18:20.290Z,4.32
2023-02-05T21:20:46.842Z,3.58
2023-02-05T21:23:13.375Z,4.60
2023-02-05T21:25:39.890Z,4.55
2023-02-05T21:28:06.404Z,4.63
2023-02-05T21:30:33.109Z,3.95
2023-02-05T21:33:00.757Z,4.13
2023-02-05T21:35:27.289Z,4.82
2023-02-05T21:37:53.926Z,3.78
2023-02-05T21:40:20.595Z,3.58
2023-02-05T21:42:47.369Z,3.42
2023-02-05T21:45:13.991Z,3.00
2023-02-05T21:47:40.525Z,3.47
2023-02-05T21:50:07.450Z,3.85
2023-02-05T21:52:33.905Z,3.67
2023-02-05T21:55:00.396Z,3.40
2023-02-05T21:57:26.944Z,3.13
2023-02-05T21:59:53.484Z,3.03
2023-02-05T22:02:20.071Z,3.15
2023-02-05T22:04:46.575Z,3.50
2023-02-05T22:07:13.074Z,3.22
2023-02-05T22:09:39.595Z,3.22
2023-02-05T22:12:06.150Z,3.03
2023-02-05T22:14:33.593Z,2.53
2023-02-05T22:17:00.646Z,2.95
2023-02-05T22:19:27.505Z,2.80
2023-02-05T22:21:54.409Z,3.08
2023-02-05T22:24:22.007Z,2.67
2023-02-05T22:26:48.889Z,2.45
2023-02-05T22:29:18.075Z,3.25
2023-02-05T22:31:45.958Z,3.25
2023-02-05T22:34:12.817Z,3.58
2023-02-05T22:36:39.316Z,2.95
2023-02-05T22:39:06.514Z,3.17
2023-02-05T22:41:36.331Z,3.17
2023-02-05T22:44:04.489Z,4.40
2023-02-05T22:49:01.808Z,4.70
2023-02-05T22:51:32.307Z,5.00
2023-02-05T22:53:59.500Z,3.60
2023-02-05T22:56:26.626Z,3.13
2023-02-05T22:58:55.998Z,3.08
2023-02-05T23:01:32.117Z,2.67
2023-02-05T23:03:59.307Z,4.32
2023-02-05T23:06:28.924Z,4.65
2023-02-05T23:09:08.380Z,4.97
2023-02-05T23:11:35.754Z,3.83
2023-02-05T23:14:03.772Z,6.30
2023-02-05T23:16:33.604Z,7.05
2023-02-05T23:19:02.407Z,6.80
2023-02-05T23:21:31.800Z,5.47
2023-02-05T23:23:58.395Z,5.85
2023-02-05T23:26:27.811Z,4.63
2023-02-05T23:28:55.901Z,5.10
2023-02-05T23:33:50.636Z,4.10
2023-02-05T23:36:17.749Z,5.13
2023-02-05T23:38:44.924Z,4.10
2023-02-05T23:41:11.840Z,4.07
2023-02-05T23:43:38.789Z,2.75
2023-02-05T23:46:07.281Z,2.90
2023-02-05T23:48:34.238Z,2.40
2023-02-05T23:51:00.892Z,2.80
2023-02-05T23:53:27.706Z,3.30
2023-02-05T23:55:54.516Z,2.20
2023-02-05T23:58:22.370Z,2.63
